KBLF/BLF METAR and TAF weather

Enter ICAO airport designator
Station Type Date Time Source
KBLF METAR 2018/07/16 23:52 UTC NOAA

KBLF 162352Z AUTO VRB03KT 10SM FEW040 BKN050 OVC060 20/20 A3006 RMK AO2 LTG DSNT NW RAE18 TSE18 SLP148 P0023 60056 T02000200 10261 20200 58007


Station Type Date Time Source
KBLF Decoded METAR 2018/07/16 23:52 UTC NOAA

BLUEFIELD MERCER COUNTY AIRPORT , WV, United States (KBLF) 37-18N 081-12W 873M
Jul 16, 2018 - 07:52 PM EDT / 2018.07.16 2352 UTC
Wind: Variable at 3 MPH (3 KT):0
Visibility: 10 mile(s):0
Sky conditions: overcast
Weather: Lightning observed
Precipitation last hour: 0.23 inches
Temperature: 68.0 F (20.0 C)
Dew Point: 68.0 F (20.0 C)
Relative Humidity: 100%
Pressure (altimeter): 30.06 in. Hg (1017 hPa)
Pressure tendency: 0.02 inches (0.7 hPa) lower than three hours ago
ob: KBLF 162352Z AUTO VRB03KT 10SM FEW040 BKN050 OVC060 20/20 A3006 RMK AO2 LTG DSNT NW RAE18 TSE18 SLP148 P0023 60056 T02000200 10261 20200 58007
cycle: 0

Station Type Date Time Source
KBLF TAF 2018/07/16 21:34 UTC NOAA

TAF
AMD KBLF 162032Z 1621/1718 VRB06KT P6SM FEW070 BKN100
TEMPO 1700/1701 1SM TSRA OVC007CB
FM170300 VRB04KT P6SM VCTS BKN040CB
FM171200 27007KT P6SM SCT010 BKN035


Example: see airport list